Latest Weather Observations for Wangaratta

IDV60801

Issued at 7:32 am EDT Monday 27 March 2017 (issued every 30 minutes, with the page automatically refreshed every 10 minutes)

About weather observations | Map of weather stations | Latest weather observations for VIC | Other Formats
Station Details ID: 082138 Name: WANGARATTA AERO Lat: -36.42 Lon: 146.31 Height: 152.6 m
Data from the previous 72 hours. | See also: Recent months at Wangaratta
Date/Time
EDT
Temp
°C
App
Temp
°C
Dew
Point
°C
Rel
Hum
%
Delta-T
°C
Wind Press
QNH
hPa
Press
MSL
hPa
Rain since
9am
mm
Dir  Spd
km/h
Gust
km/h
Spd
kts
Gust
kts
27/07:00am 17.0 19.2 16.5 97 0.3 CALM 0 0 0 0 1012.2 1011.7 0.0
27/06:30am 16.7 17.4 16.2 97 0.3 SW 7 9 4 5 1011.9 1011.4 0.0
27/06:00am 16.6 17.3 16.0 96 0.4 SW 7 9 4 5 1011.7 1011.2 0.0
27/05:30am 16.9 17.9 16.3 96 0.4 S 6 7 3 4 1011.7 1011.2 0.0
27/05:00am 16.9 17.3 16.3 96 0.4 SW 9 9 5 5 1011.7 1011.2 0.0
27/04:30am 17.1 19.1 16.1 94 0.6 CALM 0 0 0 0 1011.4 1011.0 0.0
27/04:00am 17.9 20.0 17.1 95 0.5 S 2 7 1 4 1011.5 1011.1 0.0
27/03:30am 17.5 19.0 16.7 95 0.5 SW 4 7 2 4 1011.9 1011.4 0.0
27/03:00am 18.2 20.6 17.0 93 0.7 CALM 0 0 0 0 1012.0 1011.5 0.0
27/02:30am 18.3 20.2 16.6 90 1.0 E 2 7 1 4 1012.1 1011.6 0.0
27/02:00am 18.2 19.3 16.5 90 1.0 SW 6 9 3 5 1012.5 1012.0 0.0
27/01:30am 18.7 20.0 17.2 91 0.9 S 6 6 3 3 1012.5 1012.0 0.0
27/01:00am 18.5 19.6 17.2 92 0.8 SSW 7 9 4 5 1012.8 1012.3 0.0
27/12:30am 18.9 21.5 17.4 91 0.9 CALM 0 0 0 0 1012.8 1012.3 0.0
27/12:00am 19.4 21.9 17.2 87 1.3 CALM 0 0 0 0 1013.0 1012.6 0.0
 
Date/Time
EDT
Temp
°C
App
Temp
°C
Dew
Point
°C
Rel
Hum
%
Delta-T
°C
Wind Press
QNH
hPa
Press
MSL
hPa
Rain since
9am
mm
Dir  Spd
km/h
Gust
km/h
Spd
kts
Gust
kts
26/11:30pm 20.0 22.6 17.4 85 1.6 CALM 0 2 0 1 1013.2 1012.8 0.0
26/11:00pm 20.3 22.9 17.5 84 1.7 CALM 0 0 0 0 1013.4 1013.0 0.0
26/10:30pm 21.0 22.6 17.8 82 2.0 SSW 6 7 3 4 1013.5 1013.1 0.0
26/10:00pm 21.1 23.2 17.3 79 2.3 SSW 2 9 1 5 1013.5 1013.1 0.0
26/09:30pm 22.0 24.8 18.0 78 2.5 CALM 0 0 0 0 1013.4 1013.0 0.0
26/09:00pm 22.5 25.1 17.4 73 3.2 CALM 0 0 0 0 1013.2 1012.8 0.0
26/08:30pm 25.3 26.2 16.2 57 5.6 E 6 9 3 5 1012.8 1012.3 0.0
26/08:00pm 26.0 26.9 16.0 54 6.2 ESE 6 7 3 4 1012.5 1012.0 0.0
26/07:30pm 26.8 27.6 15.8 51 6.8 E 6 7 3 4 1012.4 1011.9 0.0
26/07:00pm 27.8 28.7 16.1 49 7.3 E 6 9 3 5 1012.3 1011.8 0.0
26/06:30pm 29.1 29.4 14.9 42 8.7 NE 7 9 4 5 1012.2 1011.7 0.0
26/06:00pm 29.6 29.5 13.4 37 9.7 NNE 6 7 3 4 1011.9 1011.4 0.0
26/05:30pm 29.5 28.3 12.9 36 9.9 NNE 11 15 6 8 1012.0 1011.5 0.0
26/05:00pm 29.5 27.4 13.7 38 9.5 NNW 17 22 9 12 1011.9 1011.4 0.0
26/04:30pm 29.5 28.3 14.1 39 9.3 N 13 19 7 10 1012.1 1011.6 0.0
26/04:00pm 29.5 28.7 14.1 39 9.3 N 11 20 6 11 1012.3 1011.8 0.0
26/03:30pm 29.4 27.9 13.2 37 9.7 N 13 19 7 10 1012.5 1012.0 0.0
26/03:00pm 29.6 29.4 14.6 40 9.2 N 9 17 5 9 1012.8 1012.3 0.0
26/02:30pm 29.5 29.5 14.1 39 9.3 NE 7 17 4 9 1013.1 1012.7 0.0
26/02:00pm 28.6 28.7 14.4 41 8.6 N 7 19 4 10 1013.6 1013.2 0.0
26/01:30pm 28.5 27.9 14.7 43 8.4 N 11 20 6 11 1014.0 1013.6 0.0
26/01:00pm 28.0 28.3 16.0 48 7.4 N 9 15 5 8 1014.7 1014.3 0.0
26/12:30pm 27.6 28.0 16.2 49 7.1 NNE 9 15 5 8 1015.1 1014.7 0.0
26/12:00pm 26.7 27.0 16.0 52 6.6 NNE 9 15 5 8 1015.4 1015.0 0.0
26/11:30am 25.2 26.1 16.1 57 5.6 ESE 6 9 3 5 1015.5 1015.1 0.0
26/11:00am 24.5 27.1 17.5 65 4.4 CALM 0 7 0 4 1015.6 1015.2 0.0
26/10:30am 23.2 24.5 17.0 68 3.8 SE 6 9 3 5 1015.7 1015.3 0.0
26/10:00am 21.7 22.0 17.1 75 2.8 ESE 11 15 6 8 1015.7 1015.3 0.0
26/09:30am 20.6 21.7 17.2 81 2.1 ESE 7 9 4 5 1015.7 1015.3 0.0
26/09:00am 19.5 22.2 17.8 90 1.1 CALM 0 0 0 0 1015.5 1015.1 2.2
26/08:30am 17.9 20.7 17.9 100 0.0 CALM 0 0 0 0 1015.4 1015.0 2.2
26/08:23am 17.7 20.4 17.7 100 0.0 CALM 0 0 0 0 1015.3 1014.9 2.2
26/08:00am 15.8 17.7 15.8 100 0.0 CALM 0 2 0 1 1015.1 1014.7 2.2
26/07:30am 15.8 17.7 15.8 100 0.0 CALM 0 0 0 0 1014.7 1014.3 2.2
26/07:00am 16.0 18.0 16.0 100 0.0 CALM 0 0 0 0 1014.4 1014.0 2.2
26/06:30am 15.8 17.7 15.8 100 0.0 CALM 0 0 0 0 1014.2 1013.8 2.2
26/06:08am 16.5 18.7 16.5 100 0.0 CALM 0 0 0 0 1014.0 1013.6 2.2
26/06:00am 16.9 19.3 16.9 100 0.0 CALM 0 0 0 0 1014.0 1013.6 2.2
26/05:30am 16.8 19.1 16.8 100 0.0 CALM 0 0 0 0 1013.9 1013.5 2.2
26/05:00am 17.1 19.2 17.1 100 0.0 SSE 2 6 1 3 1013.7 1013.3 2.2
26/04:30am 16.8 19.1 16.8 100 0.0 CALM 0 0 0 0 1013.7 1013.3 2.2
26/04:00am 17.2 18.5 17.2 100 0.0 SW 6 7 3 4 1013.7 1013.3 2.2
26/03:30am 16.2 18.2 16.0 99 0.1 CALM 0 6 0 3 1013.8 1013.4 2.2
26/03:00am 16.2 16.9 16.0 99 0.1 SW 7 9 4 5 1013.9 1013.5 2.2
26/02:30am 16.6 18.0 16.3 98 0.2 SSW 4 7 2 4 1014.1 1013.7 2.2
26/02:00am 17.2 19.5 16.7 97 0.3 CALM 0 0 0 0 1014.3 1013.9 2.2
26/01:30am 17.2 18.3 16.7 97 0.3 SW 6 7 3 4 1014.3 1013.9 2.2
26/01:00am 17.0 17.9 16.2 95 0.5 SSW 6 11 3 6 1014.5 1014.1 2.2
26/12:30am 17.8 20.3 17.2 96 0.4 CALM 0 0 0 0 1014.5 1014.1 2.2
26/12:00am 17.7 20.1 17.1 96 0.4 CALM 0 0 0 0 1014.6 1014.2 2.2
 
Date/Time
EDT
Temp
°C
App
Temp
°C
Dew
Point
°C
Rel
Hum
%
Delta-T
°C
Wind Press
QNH
hPa
Press
MSL
hPa
Rain since
9am
mm
Dir  Spd
km/h
Gust
km/h
Spd
kts
Gust
kts
25/11:30pm 17.6 18.6 16.8 95 0.5 SW 7 9 4 5 1014.8 1014.4 2.2
25/11:00pm 18.1 19.2 17.1 94 0.6 S 7 9 4 5 1014.6 1014.2 2.2
25/10:30pm 17.5 19.3 16.4 93 0.7 S 2 6 1 3 1014.7 1014.3 2.2
25/10:00pm 17.7 19.7 16.0 90 1.0 CALM 0 6 0 3 1014.5 1014.1 2.2
25/09:30pm 18.2 20.3 16.2 88 1.2 CALM 0 0 0 0 1014.3 1013.9 2.2
25/09:00pm 18.7 20.8 16.3 86 1.4 CALM 0 0 0 0 1013.9 1013.5 2.2
25/08:30pm 19.8 22.0 16.4 81 2.1 CALM 0 0 0 0 1013.4 1013.0 2.2
25/08:00pm 19.9 21.6 16.2 79 2.2 S 2 6 1 3 1013.3 1012.9 2.2
25/07:30pm 21.3 23.4 16.3 73 3.0 CALM 0 2 0 1 1012.9 1012.4 2.2
25/07:00pm 23.2 24.0 15.8 63 4.5 NE 6 6 3 3 1012.7 1012.2 2.2
25/06:30pm 23.7 24.1 15.2 59 5.1 NE 7 11 4 6 1012.8 1012.3 2.2
25/06:00pm 24.1 25.0 16.1 61 4.9 NE 6 9 3 5 1012.8 1012.3 2.2
25/05:30pm 24.2 24.4 15.7 59 5.2 E 9 13 5 7 1012.8 1012.3 2.2
25/05:00pm 23.9 24.0 15.4 59 5.1 SSE 9 13 5 7 1012.8 1012.3 2.2
25/04:30pm 23.8 24.2 15.3 59 5.1 ESE 7 13 4 7 1013.1 1012.7 2.2
25/04:00pm 23.2 24.0 15.8 63 4.5 E 6 13 3 7 1013.3 1012.9 2.2
25/03:30pm 22.2 22.2 15.3 65 4.1 ENE 9 15 5 8 1013.6 1013.2 2.2
25/03:00pm 21.7 22.1 16.4 72 3.2 ESE 9 15 5 8 1013.7 1013.3 2.2
25/02:30pm 20.8 20.9 16.6 77 2.6 SE 11 15 6 8 1014.3 1013.9 2.2
25/02:00pm 20.1 20.7 16.9 82 2.0 SSE 9 15 5 8 1014.5 1014.1 2.2
25/01:30pm 19.6 20.8 17.4 87 1.4 SE 7 11 4 6 1014.6 1014.2 2.2
25/01:00pm 18.7 18.7 17.2 91 0.9 ESE 13 19 7 10 1014.8 1014.4 2.2
25/12:30pm 18.4 18.0 17.2 93 0.7 SSE 15 19 8 10 1015.8 1015.4 2.2
25/12:16pm 18.4 17.4 16.7 90 1.0 SSE 17 22 9 12 1015.9 1015.5 2.2
25/12:00pm 18.8 19.3 16.6 87 1.3 SSE 9 15 5 8 1016.0 1015.6 1.8
25/11:30am 19.3 18.7 16.7 85 1.6 SE 15 20 8 11 1016.0 1015.6 0.4
25/11:00am 19.4 19.2 16.6 84 1.7 SSE 13 17 7 9 1016.1 1015.7 0.4
25/10:30am 18.8 20.0 17.3 91 0.9 SSE 7 9 4 5 1015.9 1015.5 0.4
25/10:00am 18.4 19.5 16.7 90 1.0 SSE 6 6 3 3 1015.7 1015.3 0.2
25/09:30am 18.4 20.4 16.9 91 0.9 SW 2 7 1 4 1015.7 1015.3 0.2
25/09:00am 18.2 20.5 16.7 91 0.9 CALM 0 0 0 0 1015.4 1015.0 0.0
25/08:30am 18.0 20.2 16.5 91 0.9 CALM 0 0 0 0 1014.9 1014.5 0.0
25/08:00am 17.7 19.9 16.4 92 0.8 CALM 0 0 0 0 1014.8 1014.4 0.0
25/07:30am 17.5 19.5 16.0 91 0.9 CALM 0 0 0 0 1014.6 1014.2 0.0
25/07:00am 17.4 18.0 15.9 91 0.9 SW 7 11 4 6 1014.6 1014.2 0.0
25/06:30am 17.4 18.3 16.1 92 0.8 SW 6 9 3 5 1014.5 1014.1 0.0
25/06:00am 17.5 19.4 15.7 89 1.1 CALM 0 0 0 0 1014.2 1013.8 0.0
25/05:30am 17.5 19.4 15.7 89 1.1 CALM 0 0 0 0 1014.4 1014.0 0.0
25/05:00am 17.2 19.1 15.7 91 0.9 CALM 0 0 0 0 1014.4 1014.0 0.0
25/04:30am 16.9 18.9 16.1 95 0.5 CALM 0 0 0 0 1014.7 1014.3 0.0
25/04:00am 16.6 18.6 16.0 96 0.4 CALM 0 0 0 0 1014.7 1014.3 0.0
25/03:58am 16.4 18.3 15.8 96 0.4 CALM 0 0 0 0 1014.8 1014.4 0.0
25/03:30am 16.1 17.7 15.0 93 0.6 CALM 0 0 0 0 1014.7 1014.3 0.0
25/03:22am 15.9 17.4 14.6 92 0.7 CALM 0 0 0 0 1014.9 1014.5 0.0
25/03:00am 16.4 18.2 15.4 94 0.6 CALM 0 0 0 0 1014.8 1014.4 0.0
25/02:30am 16.8 18.6 15.5 92 0.8 CALM 0 0 0 0 1014.8 1014.4 0.0
25/02:00am 16.6 17.2 15.3 92 0.8 WSW 6 7 3 4 1015.1 1014.7 0.0
25/01:30am 17.0 18.6 15.0 88 1.2 CALM 0 0 0 0 1015.3 1014.9 0.0
25/01:00am 18.1 19.1 15.4 84 1.6 E 4 7 2 4 1015.5 1015.1 0.0
25/12:30am 18.0 18.7 15.6 86 1.4 SSE 6 7 3 4 1015.9 1015.5 0.0
25/12:00am 17.5 19.4 15.7 89 1.1 CALM 0 7 0 4 1015.9 1015.5 0.0
 
Date/Time
EDT
Temp
°C
App
Temp
°C
Dew
Point
°C
Rel
Hum
%
Delta-T
°C
Wind Press
QNH
hPa
Press
MSL
hPa
Rain since
9am
mm
Dir  Spd
km/h
Gust
km/h
Spd
kts
Gust
kts
24/11:30pm 17.7 18.5 15.9 89 1.1 SW 6 9 3 5 1015.9 1015.5 0.0
24/11:00pm 17.6 19.2 14.9 84 1.6 CALM 0 0 0 0 1015.8 1015.4 0.0
24/10:30pm 19.1 19.5 14.8 76 2.5 N 6 9 3 5 1016.0 1015.6 0.0
24/10:00pm 18.9 20.6 15.2 79 2.2 CALM 0 0 0 0 1015.7 1015.3 0.0
24/09:30pm 19.6 21.2 15.0 75 2.7 CALM 0 6 0 3 1015.7 1015.3 0.0
24/09:00pm 19.9 20.2 14.9 73 2.9 S 7 9 4 5 1015.5 1015.1 0.0
24/08:30pm 21.1 21.5 15.2 69 3.5 SE 7 9 4 5 1015.3 1014.9 0.0
24/08:00pm 21.8 22.0 14.7 64 4.2 SE 7 9 4 5 1014.9 1014.5 0.0
24/07:30pm 23.3 24.1 13.8 55 5.6 SE 2 7 1 4 1014.8 1014.4 0.0
24/07:00pm 24.4 25.5 13.6 51 6.4 CALM 0 0 0 0 1015.2 1014.8 0.0
24/06:30pm 25.9 26.5 12.0 42 8.0 CALM 0 0 0 0 1014.7 1014.3 0.0
24/06:00pm 26.3 26.2 12.0 41 8.3 ESE 4 7 2 4 1014.7 1014.3 0.0
24/05:30pm 26.7 25.3 10.8 37 9.0 SSE 9 11 5 6 1014.7 1014.3 0.0
24/05:00pm 26.7 25.5 10.4 36 9.2 ESE 7 15 4 8 1014.8 1014.4 0.0
24/04:30pm 27.2 25.7 10.4 35 9.5 ESE 9 13 5 7 1014.9 1014.5 0.0
24/04:00pm 26.9 26.4 9.3 33 9.7 S 2 7 1 4 1015.3 1014.9 0.0
24/03:30pm 26.4 25.9 9.3 34 9.4 NNW 2 11 1 6 1015.5 1015.1 0.0
24/03:00pm 26.9 25.1 9.3 33 9.7 E 9 19 5 10 1015.8 1015.4 0.0
24/02:30pm 26.3 24.5 9.6 35 9.3 ENE 9 17 5 9 1016.3 1015.9 0.0
24/02:00pm 25.9 24.7 9.7 36 9.0 ESE 6 13 3 7 1017.1 1016.7 0.0
24/01:30pm 25.8 24.1 10.0 37 8.8 E 9 13 5 7 1017.6 1017.2 0.0
24/01:00pm 24.8 23.5 9.9 39 8.2 SE 7 13 4 7 1018.0 1017.6 0.0
24/12:30pm 24.9 24.2 11.5 43 7.6 E 6 15 3 8 1018.1 1017.7 0.0
24/12:00pm 24.0 24.0 11.3 45 7.2 SSW 2 7 1 4 1018.7 1018.3 0.0
24/11:30am 23.4 22.7 12.1 49 6.5 SE 7 15 4 8 1019.2 1018.8 0.0
24/11:00am 22.3 21.4 12.5 53 5.6 SE 9 15 5 8 1019.3 1018.9 0.0
24/10:30am 21.3 20.0 12.4 57 5.1 SE 11 15 6 8 1019.4 1019.0 0.0
24/10:00am 19.5 18.9 12.3 63 4.0 SSE 7 11 4 6 1019.5 1019.1 0.0
24/09:30am 18.1 17.6 11.9 67 3.4 SE 6 9 3 5 1019.4 1019.0 0.0
24/09:00am 16.8 16.3 12.7 77 2.3 SSW 7 9 4 5 1019.2 1018.8 0.0
24/08:30am 15.5 15.2 12.6 83 1.6 SSW 6 9 3 5 1019.0 1018.6 0.0
24/08:00am 13.7 13.7 12.4 92 0.7 SSW 4 7 2 4 1018.8 1018.4 0.0

Other Formats:

Comma delimited format used in spreadsheet applications
http://www.bom.gov.au/fwo/IDV60801/IDV60801.94889.axf

JavaScript Object Notation format (JSON) in row-major order
http://www.bom.gov.au/fwo/IDV60801/IDV60801.94889.json